createdAt,value
2019-04-06T11:37:56.622Z,17.10
2019-04-06T11:40:53.620Z,17.40
2019-04-06T11:43:42.128Z,17.30
2019-04-06T11:46:19.730Z,17.20
2019-04-06T11:49:02.028Z,17.10
2019-04-06T11:51:54.764Z,17.00
2019-04-06T11:54:40.157Z,17.00
2019-04-06T11:57:21.527Z,17.10
2019-04-06T11:59:59.858Z,17.30
2019-04-06T12:02:48.572Z,17.40
2019-04-06T12:05:52.680Z,17.40
2019-04-06T12:08:39.715Z,17.50
2019-04-06T12:11:37.348Z,17.40
2019-04-06T12:14:26.389Z,17.40
2019-04-06T12:17:14.694Z,17.40
2019-04-06T12:20:02.295Z,17.60
2019-04-06T12:22:50.965Z,17.80
2019-04-06T12:25:32.789Z,18.00
2019-04-06T12:28:12.508Z,18.00
2019-04-06T12:30:52.493Z,18.10
2019-04-06T12:33:40.105Z,18.00
2019-04-06T12:36:27.932Z,17.90
2019-04-06T12:39:14.425Z,17.80
2019-04-06T12:42:06.196Z,17.80
2019-04-06T12:44:55.328Z,17.80
2019-04-06T12:47:37.236Z,17.90
2019-04-06T12:50:16.194Z,18.00
2019-04-06T12:53:17.333Z,18.00
2019-04-06T12:55:59.504Z,18.20
2019-04-06T12:58:46.402Z,18.30
2019-04-06T13:01:24.956Z,18.30
2019-04-06T13:04:13.076Z,18.40
2019-04-06T13:07:01.930Z,18.40
2019-04-06T13:09:54.001Z,18.40
2019-04-06T13:12:41.737Z,18.50
2019-04-06T13:15:30.717Z,18.50
2019-04-06T13:18:25.660Z,18.60
2019-04-06T13:21:23.607Z,18.60
2019-04-06T13:24:12.374Z,18.70
2019-04-06T13:27:09.756Z,18.60
2019-04-06T13:29:49.520Z,18.60
2019-04-06T13:32:37.274Z,18.60
2019-04-06T13:35:12.972Z,18.60
2019-04-06T13:38:13.026Z,18.60
2019-04-06T13:41:13.645Z,18.60
2019-04-06T13:43:48.668Z,18.80
2019-04-06T13:46:37.720Z,18.70
2019-04-06T13:49:21.405Z,18.70
2019-04-06T13:52:03.470Z,18.70
2019-04-06T13:55:01.328Z,18.80
2019-04-06T13:57:39.121Z,19.20
2019-04-06T14:00:21.246Z,19.30
2019-04-06T14:03:19.219Z,19.30
2019-04-06T14:06:13.924Z,19.10
2019-04-06T14:08:56.674Z,18.90
2019-04-06T14:11:48.501Z,19.00
2019-04-06T14:14:29.161Z,19.20
2019-04-06T14:17:31.913Z,19.20
2019-04-06T14:20:18.305Z,19.20
2019-04-06T14:22:56.492Z,19.30
2019-04-06T14:25:40.456Z,19.20
2019-04-06T14:28:22.657Z,19.20
2019-04-06T14:31:10.269Z,19.20
2019-04-06T14:34:08.464Z,19.30
2019-04-06T14:36:47.596Z,19.20
2019-04-06T14:39:36.328Z,19.30
2019-04-06T14:42:33.408Z,19.40
2019-04-06T14:45:21.898Z,19.50
2019-04-06T14:48:16.515Z,19.50
2019-04-06T14:50:56.286Z,19.50
2019-04-06T14:53:43.949Z,19.50
2019-04-06T14:56:48.392Z,19.40
2019-04-06T14:59:35.040Z,19.30
2019-04-06T15:02:27.431Z,19.30
2019-04-06T15:05:22.267Z,19.10
2019-04-06T15:08:10.547Z,19.10
2019-04-06T15:11:02.628Z,19.10
2019-04-06T15:13:49.093Z,19.30
2019-04-06T15:16:28.064Z,19.20
2019-04-06T17:52:37.358Z,17.40
2019-04-06T17:55:35.987Z,17.40
2019-04-06T17:58:14.157Z,17.30
2019-04-06T18:01:01.669Z,17.30
2019-04-06T18:03:59.169Z,17.30
2019-04-06T18:06:43.460Z,17.20
2019-04-06T18:09:26.408Z,17.10
2019-04-06T18:12:18.450Z,17.10
2019-04-06T18:14:49.452Z,17.00
2019-04-06T18:17:19.232Z,17.00
2019-04-06T18:19:48.860Z,17.00
2019-04-06T18:22:18.531Z,16.90
2019-04-06T18:24:48.965Z,16.90
2019-04-06T18:27:18.682Z,16.80
2019-04-06T18:29:49.240Z,16.70
2019-04-06T18:32:28.656Z,16.60
2019-04-06T18:34:58.385Z,16.60
2019-04-06T18:37:47.145Z,16.50
2019-04-06T18:42:57.937Z,16.20
2019-04-06T18:45:29.955Z,16.30
2019-04-06T18:47:59.686Z,16.20
2019-04-06T18:50:36.529Z,16.20
2019-04-06T18:53:02.231Z,16.20
2019-04-06T18:55:33.021Z,16.10
2019-04-06T18:58:10.088Z,16.00
2019-04-06T19:00:34.594Z,15.90
2019-04-06T19:03:12.452Z,15.90
2019-04-06T19:05:36.240Z,15.90
2019-04-06T19:08:06.789Z,15.80
2019-04-06T19:10:36.644Z,15.80
